Time;durP1;ratioP1;P1;durP2;ratioP2;P2;SDS_P1;SDS_P2;PMS_P1;PMS_P2;Temp;Humidity;BMP_temperature;BMP_pressure;BME280_temperature;BME280_humidity;BME280_pressure;Samples;Min_cycle;Max_cycle;Signal;HPM_P1;HPM_P2
2023/12/15 00:01:27;;;;;;;5.05;2.33;;;7.00;99.90;;;;;;5011848;28;20133;-80
2023/12/15 00:03:54;;;;;;;4.38;1.90;;;7.10;99.90;;;;;;5009435;28;20042;-81
2023/12/15 00:06:20;;;;;;;3.28;2.15;;;7.00;99.90;;;;;;5007354;28;20061;-79
2023/12/15 00:08:47;;;;;;;3.33;1.98;;;7.00;99.90;;;;;;5010892;28;20441;-80
2023/12/15 00:11:14;;;;;;;2.78;1.85;;;7.10;99.90;;;;;;5006414;28;20049;-79
2023/12/15 00:13:41;;;;;;;3.90;1.90;;;7.10;99.90;;;;;;5009149;28;20042;-79
2023/12/15 00:16:08;;;;;;;2.97;1.95;;;7.10;99.90;;;;;;5008549;28;20525;-80
2023/12/15 00:18:34;;;;;;;3.03;1.77;;;7.10;99.90;;;;;;5021795;28;20038;-79
2023/12/15 00:21:02;;;;;;;3.35;1.55;;;7.20;99.90;;;;;;5007141;28;20414;-81
2023/12/15 00:23:28;;;;;;;3.42;2.17;;;7.20;99.90;;;;;;5007538;28;20046;-80
2023/12/15 00:25:55;;;;;;;3.38;2.00;;;7.20;99.90;;;;;;5008903;28;20137;-79
2023/12/15 00:28:22;;;;;;;2.58;1.98;;;7.20;99.90;;;;;;5009908;28;20052;-81
2023/12/15 00:30:48;;;;;;;3.30;1.85;;;7.20;99.90;;;;;;5007545;28;20406;-80
2023/12/15 00:33:15;;;;;;;3.28;1.92;;;7.20;99.90;;;;;;5002400;28;20520;-80
2023/12/15 00:35:42;;;;;;;2.20;1.77;;;7.30;99.90;;;;;;5025140;28;20050;-79
2023/12/15 00:38:09;;;;;;;6.28;2.03;;;7.30;99.90;;;;;;5009278;28;20053;-80
2023/12/15 00:40:35;;;;;;;2.05;1.83;;;7.30;99.90;;;;;;5010151;28;20037;-78
2023/12/15 00:43:02;;;;;;;4.22;2.05;;;7.30;99.90;;;;;;5004941;28;20047;-80
2023/12/15 00:45:29;;;;;;;3.30;1.67;;;7.30;99.90;;;;;;5012721;28;20096;-79
2023/12/15 00:47:56;;;;;;;3.38;1.98;;;7.30;99.90;;;;;;5005586;28;20506;-78
2023/12/15 00:50:22;;;;;;;2.55;2.08;;;7.30;99.90;;;;;;5009381;28;20124;-79
2023/12/15 00:52:49;;;;;;;8.98;2.03;;;7.30;99.90;;;;;;5005997;28;20100;-78
2023/12/15 00:55:16;;;;;;;4.07;1.95;;;7.40;99.90;;;;;;5007699;28;20049;-77
2023/12/15 00:57:43;;;;;;;4.28;2.17;;;7.40;99.90;;;;;;5008450;28;20054;-81
2023/12/15 01:00:10;;;;;;;2.47;1.63;;;7.30;99.90;;;;;;5006540;28;20054;-81
2023/12/15 01:02:37;;;;;;;3.55;1.80;;;7.30;99.90;;;;;;5009497;28;20042;-79
2023/12/15 01:05:04;;;;;;;3.58;1.88;;;7.30;99.90;;;;;;5007759;28;20506;-79
2023/12/15 01:07:31;;;;;;;3.65;2.45;;;7.30;99.90;;;;;;5007632;28;20053;-78
2023/12/15 01:09:58;;;;;;;5.43;3.67;;;7.20;99.90;;;;;;5003811;28;20050;-78
2023/12/15 01:12:24;;;;;;;5.25;3.40;;;7.20;99.90;;;;;;5008335;28;20080;-79
2023/12/15 01:14:51;;;;;;;5.88;3.42;;;7.10;99.90;;;;;;5003417;28;20058;-79
2023/12/15 01:17:18;;;;;;;4.50;2.78;;;7.10;99.90;;;;;;5012405;28;20046;-80
2023/12/15 01:19:44;;;;;;;5.30;3.50;;;7.00;99.90;;;;;;5010495;28;20049;-78
2023/12/15 01:22:11;;;;;;;4.13;2.90;;;7.00;99.90;;;;;;5019707;28;20465;-78
2023/12/15 01:24:38;;;;;;;4.80;2.65;;;6.90;99.90;;;;;;5012600;28;20049;-78
2023/12/15 01:27:05;;;;;;;6.50;2.80;;;6.90;99.90;;;;;;5010366;28;20105;-80
2023/12/15 01:29:31;;;;;;;3.17;2.28;;;6.80;99.90;;;;;;5016657;28;20122;-78
2023/12/15 01:31:58;;;;;;;3.47;2.20;;;6.80;99.90;;;;;;5012786;28;20050;-80
2023/12/15 01:34:25;;;;;;;4.20;2.65;;;6.70;99.90;;;;;;5010682;28;20080;-78
2023/12/15 01:36:52;;;;;;;5.20;3.20;;;6.60;99.90;;;;;;5012162;28;20042;-78
2023/12/15 01:39:18;;;;;;;7.40;2.60;;;6.60;99.90;;;;;;5010558;28;20497;-78
2023/12/15 01:41:45;;;;;;;3.15;2.17;;;6.50;99.90;;;;;;5012634;28;20096;-78
2023/12/15 01:44:12;;;;;;;4.72;2.20;;;6.50;99.90;;;;;;5012345;28;20042;-77
2023/12/15 01:46:39;;;;;;;3.45;2.00;;;6.40;99.90;;;;;;5007914;28;20493;-79
2023/12/15 01:49:06;;;;;;;3.53;2.30;;;6.40;99.90;;;;;;5008253;28;20046;-80
2023/12/15 01:51:33;;;;;;;3.38;2.42;;;6.30;99.90;;;;;;5012507;28;20038;-79
2023/12/15 01:53:59;;;;;;;4.18;2.30;;;6.30;99.90;;;;;;5010855;28;20046;-78
2023/12/15 01:56:26;;;;;;;2.92;2.25;;;6.20;99.90;;;;;;5008931;28;20496;-79
2023/12/15 01:58:53;;;;;;;4.22;2.20;;;6.20;99.90;;;;;;5014554;28;20046;-79
2023/12/15 02:01:20;;;;;;;3.30;2.20;;;6.10;99.90;;;;;;5008054;28;20042;-78
2023/12/15 02:03:48;;;;;;;5.03;1.92;;;6.10;99.90;;;;;;5009837;28;20049;-78
2023/12/15 02:06:14;;;;;;;3.67;2.08;;;6.10;99.90;;;;;;5025398;28;20129;-78
2023/12/15 02:08:46;;;;;;;6.53;2.45;;;6.10;99.90;;;;;;5007650;28;20536;-80
2023/12/15 02:11:12;;;;;;;4.90;2.55;;;6.00;99.90;;;;;;5009158;28;20104;-79
2023/12/15 02:13:39;;;;;;;3.15;2.10;;;6.00;99.90;;;;;;5009520;28;20053;-80
2023/12/15 02:16:06;;;;;;;3.90;2.63;;;6.00;99.90;;;;;;5025565;28;20089;-79
2023/12/15 02:18:33;;;;;;;4.18;2.58;;;6.00;99.90;;;;;;5007417;28;20101;-78
2023/12/15 02:21:00;;;;;;;4.18;2.47;;;6.00;99.90;;;;;;5012132;28;20077;-80
2023/12/15 02:23:26;;;;;;;5.25;2.50;;;6.00;99.90;;;;;;5009491;28;20046;-80
2023/12/15 02:25:53;;;;;;;8.85;4.47;;;6.00;99.90;;;;;;5009258;28;20581;-78
2023/12/15 02:28:20;;;;;;;5.25;3.00;;;6.00;99.90;;;;;;5006830;28;20425;-80
2023/12/15 02:30:47;;;;;;;6.28;3.75;;;6.00;99.90;;;;;;5011875;28;20078;-80
2023/12/15 02:33:14;;;;;;;5.60;2.90;;;6.00;99.90;;;;;;5013006;28;20534;-79
2023/12/15 02:35:41;;;;;;;7.28;2.63;;;6.10;99.90;;;;;;5011144;28;20121;-79
2023/12/15 02:38:08;;;;;;;6.47;2.85;;;6.10;99.90;;;;;;5005504;28;20051;-79
2023/12/15 02:40:35;;;;;;;6.03;2.53;;;6.10;99.90;;;;;;5013077;28;20061;-80
2023/12/15 02:43:02;;;;;;;5.55;2.42;;;6.20;99.90;;;;;;5008747;28;20050;-80
2023/12/15 02:45:29;;;;;;;4.65;2.40;;;6.20;99.90;;;;;;5010355;28;20100;-80
2023/12/15 02:47:56;;;;;;;5.80;2.33;;;6.20;99.90;;;;;;5008012;28;20100;-80
2023/12/15 02:50:23;;;;;;;5.38;2.60;;;6.30;99.90;;;;;;5009314;28;20046;-78
2023/12/15 02:52:49;;;;;;;4.10;2.80;;;6.30;99.90;;;;;;5008347;28;20125;-79
2023/12/15 02:55:17;;;;;;;4.63;2.85;;;6.30;99.90;;;;;;5025124;28;20050;-79
2023/12/15 02:57:43;;;;;;;5.55;3.53;;;6.30;99.90;;;;;;5009140;28;20096;-80
2023/12/15 03:00:11;;;;;;;6.95;4.45;;;6.30;99.90;;;;;;5006822;28;20101;-79
2023/12/15 03:02:39;;;;;;;7.30;4.82;;;6.30;99.90;;;;;;5010553;28;20391;-80
2023/12/15 03:05:06;;;;;;;9.57;4.60;;;6.30;99.90;;;;;;5004844;28;20046;-79
2023/12/15 03:07:33;;;;;;;7.80;4.65;;;6.30;99.90;;;;;;5014645;28;20050;-79
2023/12/15 03:10:00;;;;;;;7.78;4.93;;;6.40;99.90;;;;;;5007394;28;20054;-80
2023/12/15 03:12:28;;;;;;;6.03;4.32;;;6.40;99.90;;;;;;5010878;28;20052;-81
2023/12/15 03:14:56;;;;;;;9.65;5.68;;;6.40;99.90;;;;;;5007872;28;20494;-80
2023/12/15 03:17:23;;;;;;;6.65;5.22;;;6.50;99.90;;;;;;5013129;28;20437;-78
2023/12/15 03:19:50;;;;;;;10.15;5.43;;;6.50;99.90;;;;;;5011494;28;20046;-79
2023/12/15 03:22:17;;;;;;;11.02;5.50;;;6.50;99.90;;;;;;5012989;28;20125;-79
2023/12/15 03:24:44;;;;;;;9.40;5.88;;;6.50;99.90;;;;;;5009865;28;20045;-79
2023/12/15 03:27:10;;;;;;;8.65;4.90;;;6.50;99.90;;;;;;5009336;28;20050;-80
2023/12/15 03:29:37;;;;;;;13.40;5.78;;;6.60;99.90;;;;;;5008894;28;20046;-80
2023/12/15 03:32:04;;;;;;;7.63;5.35;;;6.50;99.90;;;;;;5010572;28;20050;-80
2023/12/15 03:34:31;;;;;;;8.27;5.15;;;6.50;99.90;;;;;;5016682;28;20064;-78
2023/12/15 03:36:58;;;;;;;9.95;5.82;;;6.50;99.90;;;;;;5008977;28;20093;-78
2023/12/15 03:39:24;;;;;;;8.05;4.97;;;6.60;99.90;;;;;;5013405;28;20498;-79
2023/12/15 03:41:51;;;;;;;9.38;5.45;;;6.60;99.90;;;;;;5007465;28;20054;-78
2023/12/15 03:44:18;;;;;;;7.82;5.00;;;6.60;99.90;;;;;;5008394;28;20573;-79
2023/12/15 03:46:44;;;;;;;9.77;4.80;;;6.60;99.90;;;;;;5006698;28;20092;-78
2023/12/15 03:49:11;;;;;;;7.40;4.63;;;6.60;99.90;;;;;;5005958;28;20469;-80
2023/12/15 03:51:38;;;;;;;10.15;5.45;;;6.60;99.90;;;;;;5006304;28;20053;-79
2023/12/15 03:54:05;;;;;;;9.13;6.05;;;6.60;99.90;;;;;;5009480;28;20054;-78
2023/12/15 03:56:31;;;;;;;6.70;4.88;;;6.70;99.90;;;;;;5008414;28;20049;-79
2023/12/15 03:59:00;;;;;;;12.68;5.57;;;6.60;99.90;;;;;;5006145;28;20045;-79
2023/12/15 04:01:27;;;;;;;8.40;5.47;;;6.60;99.90;;;;;;5007562;28;20046;-80
2023/12/15 04:03:54;;;;;;;10.85;5.07;;;6.60;99.90;;;;;;5005961;28;20045;-80
2023/12/15 04:06:20;;;;;;;11.65;5.90;;;6.60;99.90;;;;;;5009465;28;20042;-80
2023/12/15 04:08:47;;;;;;;8.23;5.35;;;6.60;99.90;;;;;;5006392;28;20049;-80
2023/12/15 04:11:17;;;;;;;8.70;5.40;;;6.60;99.90;;;;;;5007303;28;20112;-80
2023/12/15 04:13:44;;;;;;;6.35;4.90;;;6.60;99.90;;;;;;5012326;28;20175;-81
2023/12/15 04:16:11;;;;;;;11.40;6.85;;;6.60;99.90;;;;;;5011310;28;20046;-78
2023/12/15 04:18:38;;;;;;;11.95;6.32;;;6.60;99.90;;;;;;5006289;28;20042;-80
2023/12/15 04:21:06;;;;;;;8.40;5.28;;;6.60;99.90;;;;;;5007455;28;20084;-80
2023/12/15 04:23:33;;;;;;;10.15;5.63;;;6.60;99.90;;;;;;5005588;28;20042;-78
2023/12/15 04:26:00;;;;;;;9.07;5.72;;;6.60;99.90;;;;;;5007700;28;20073;-80
2023/12/15 04:28:27;;;;;;;7.60;5.53;;;6.60;99.90;;;;;;5007364;28;20089;-81
2023/12/15 04:30:53;;;;;;;8.73;5.70;;;6.60;99.90;;;;;;5003993;28;20081;-79
2023/12/15 04:33:20;;;;;;;9.75;5.45;;;6.60;99.90;;;;;;5021775;28;20129;-78
2023/12/15 04:35:47;;;;;;;9.60;5.07;;;6.60;99.90;;;;;;5007291;28;20108;-80
2023/12/15 04:38:14;;;;;;;9.15;6.22;;;6.60;99.90;;;;;;5007647;28;20151;-79
2023/12/15 04:40:42;;;;;;;8.40;5.38;;;6.70;99.90;;;;;;5007034;28;20049;-78
2023/12/15 04:43:09;;;;;;;11.30;6.18;;;6.70;99.90;;;;;;5022028;28;20099;-78
2023/12/15 04:45:36;;;;;;;9.98;5.63;;;6.70;99.90;;;;;;5009561;28;20076;-78
2023/12/15 04:48:03;;;;;;;7.82;5.82;;;6.70;99.90;;;;;;5005357;28;20411;-80
2023/12/15 04:50:29;;;;;;;7.45;5.10;;;6.70;99.90;;;;;;5010717;28;20081;-78
2023/12/15 04:52:57;;;;;;;8.20;5.32;;;6.80;99.90;;;;;;5005070;28;20054;-80
2023/12/15 04:55:24;;;;;;;9.07;5.75;;;6.80;99.90;;;;;;5004600;28;20061;-78
2023/12/15 04:57:51;;;;;;;8.60;5.05;;;6.80;99.90;;;;;;5008967;28;20414;-80
2023/12/15 05:00:18;;;;;;;9.23;5.95;;;6.80;99.90;;;;;;5011127;28;20046;-80
2023/12/15 05:02:44;;;;;;;8.18;5.88;;;6.70;99.90;;;;;;5008330;28;20053;-80
2023/12/15 05:05:11;;;;;;;8.77;5.60;;;6.70;99.90;;;;;;5004467;28;20042;-80
2023/12/15 05:07:38;;;;;;;6.65;4.85;;;6.70;99.90;;;;;;5006090;28;20042;-80
2023/12/15 05:10:06;;;;;;;6.72;5.25;;;6.70;99.90;;;;;;5009210;28;20096;-80
2023/12/15 05:12:34;;;;;;;9.10;5.43;;;6.70;99.90;;;;;;5008071;28;20038;-80
2023/12/15 05:15:02;;;;;;;11.73;5.20;;;6.70;99.90;;;;;;5008416;28;20180;-80
2023/12/15 05:17:30;;;;;;;7.25;5.05;;;6.70;99.90;;;;;;5005001;28;20119;-81
2023/12/15 05:19:57;;;;;;;8.05;5.18;;;6.70;99.90;;;;;;5011931;28;20042;-80
2023/12/15 05:22:24;;;;;;;8.45;5.03;;;6.70;99.90;;;;;;5003414;28;20133;-80
2023/12/15 05:24:51;;;;;;;6.90;4.32;;;6.70;99.90;;;;;;5010835;28;20056;-81
2023/12/15 05:27:18;;;;;;;9.88;6.32;;;6.70;99.90;;;;;;5004007;28;20046;-80
2023/12/15 05:29:46;;;;;;;8.73;4.75;;;6.70;99.90;;;;;;5008634;28;20534;-80
2023/12/15 05:32:14;;;;;;;7.60;4.90;;;6.60;99.90;;;;;;5011508;28;20517;-80
2023/12/15 05:34:42;;;;;;;6.68;4.97;;;6.70;99.90;;;;;;5009593;28;20235;-79
2023/12/15 05:37:09;;;;;;;7.60;5.35;;;6.70;99.90;;;;;;5005195;28;20061;-80
2023/12/15 05:39:36;;;;;;;12.23;6.10;;;6.70;99.90;;;;;;5007673;28;20096;-80
2023/12/15 05:42:03;;;;;;;8.25;5.10;;;6.80;99.90;;;;;;5005442;28;20108;-79
2023/12/15 05:44:30;;;;;;;16.08;6.40;;;6.80;99.90;;;;;;5006175;28;20054;-80
2023/12/15 05:46:56;;;;;;;8.48;4.97;;;6.80;99.90;;;;;;5007990;28;20092;-78
2023/12/15 05:49:24;;;;;;;6.38;4.32;;;6.80;99.90;;;;;;5009817;28;20050;-79
2023/12/15 05:51:51;;;;;;;6.70;4.80;;;6.80;99.90;;;;;;5010379;28;20062;-80
2023/12/15 05:54:17;;;;;;;8.80;4.88;;;6.80;99.90;;;;;;5003684;28;20058;-79
2023/12/15 05:56:44;;;;;;;7.85;5.45;;;6.80;99.90;;;;;;5009373;28;20050;-79
2023/12/15 05:59:11;;;;;;;10.52;5.57;;;6.80;99.90;;;;;;5001626;28;20458;-79
2023/12/15 06:01:37;;;;;;;8.93;4.80;;;6.80;99.90;;;;;;5008735;28;20453;-79
2023/12/15 06:04:04;;;;;;;8.02;5.40;;;6.80;99.90;;;;;;5008040;28;20081;-79
2023/12/15 06:06:32;;;;;;;11.60;5.25;;;6.90;99.90;;;;;;5008587;28;20050;-79
2023/12/15 06:08:59;;;;;;;9.75;5.03;;;6.90;99.90;;;;;;5012193;28;20104;-79
2023/12/15 06:11:27;;;;;;;8.88;5.28;;;6.80;99.90;;;;;;5009220;28;20051;-80
2023/12/15 06:13:54;;;;;;;7.97;5.30;;;6.80;99.90;;;;;;5008659;28;20045;-78
2023/12/15 06:16:21;;;;;;;6.68;5.03;;;6.80;99.90;;;;;;5007400;28;20058;-80
2023/12/15 06:18:48;;;;;;;8.27;4.60;;;6.80;99.90;;;;;;5010689;28;20050;-79
2023/12/15 06:21:23;;;;;;;7.20;5.18;;;6.80;99.90;;;;;;5007657;28;20125;-80
2023/12/15 06:23:51;;;;;;;13.48;6.43;;;6.80;99.90;;;;;;5009701;28;20073;-80
2023/12/15 06:26:22;;;;;;;10.38;6.15;;;6.80;99.90;;;;;;5010951;28;20050;-78
2023/12/15 06:28:49;;;;;;;9.90;5.38;;;6.80;99.90;;;;;;5011433;28;20454;-80
2023/12/15 06:31:16;;;;;;;10.95;6.10;;;6.80;99.90;;;;;;5011628;28;20050;-81
2023/12/15 06:33:43;;;;;;;7.07;4.70;;;6.80;99.90;;;;;;5009353;28;20464;-80
2023/12/15 06:36:11;;;;;;;8.35;5.13;;;6.80;99.90;;;;;;5005869;28;20058;-80
2023/12/15 06:38:42;;;;;;;7.50;5.03;;;6.80;99.90;;;;;;5011370;28;20058;-78
2023/12/15 06:41:12;;;;;;;12.15;5.80;;;6.70;99.90;;;;;;5008316;28;20494;-80
2023/12/15 06:43:43;;;;;;;7.72;5.07;;;6.70;99.90;;;;;;5009921;28;20361;-78
2023/12/15 06:46:11;;;;;;;12.25;6.13;;;6.70;99.90;;;;;;5013338;28;20076;-80
2023/12/15 06:48:38;;;;;;;9.93;5.30;;;6.70;99.90;;;;;;5008694;28;20051;-80
2023/12/15 06:51:05;;;;;;;10.75;5.05;;;6.70;99.90;;;;;;5008992;28;20057;-78
2023/12/15 06:53:32;;;;;;;14.20;5.22;;;6.60;99.90;;;;;;5007290;28;20549;-80
2023/12/15 06:55:59;;;;;;;11.80;6.20;;;6.70;99.90;;;;;;5009733;28;20052;-80
2023/12/15 06:58:27;;;;;;;12.15;5.18;;;6.70;99.90;;;;;;5006052;28;20146;-80
2023/12/15 07:00:53;;;;;;;9.05;5.22;;;6.60;99.90;;;;;;5013576;28;20049;-78
2023/12/15 07:03:20;;;;;;;9.52;5.15;;;6.60;99.90;;;;;;5005190;28;20053;-80
2023/12/15 07:05:47;;;;;;;8.57;5.35;;;6.60;99.90;;;;;;5010797;28;20395;-79
2023/12/15 07:08:14;;;;;;;9.48;5.55;;;6.60;99.90;;;;;;5004728;28;20050;-80
2023/12/15 07:10:41;;;;;;;8.48;5.60;;;6.60;99.90;;;;;;5009106;28;20497;-79
2023/12/15 07:13:08;;;;;;;10.57;6.07;;;6.60;99.90;;;;;;5013557;28;20058;-80
2023/12/15 07:15:35;;;;;;;9.85;6.32;;;6.60;99.90;;;;;;5011497;28;20462;-80
2023/12/15 07:18:02;;;;;;;7.93;5.53;;;6.60;99.90;;;;;;5007289;28;20485;-79
2023/12/15 07:20:29;;;;;;;9.48;6.15;;;6.50;99.90;;;;;;5010658;28;20081;-78
2023/12/15 07:22:56;;;;;;;11.57;5.90;;;6.50;99.90;;;;;;5013794;28;20068;-78
2023/12/15 07:25:26;;;;;;;9.45;6.18;;;6.50;99.90;;;;;;5011709;28;20053;-80
2023/12/15 07:27:53;;;;;;;10.75;4.80;;;6.50;99.90;;;;;;5004597;28;20104;-79
2023/12/15 07:30:21;;;;;;;9.07;5.10;;;6.50;99.90;;;;;;5009587;28;20058;-79
2023/12/15 07:32:48;;;;;;;10.80;5.97;;;6.50;99.90;;;;;;5009246;28;20049;-80
2023/12/15 07:35:15;;;;;;;9.50;6.25;;;6.50;99.90;;;;;;5006042;28;20088;-81
2023/12/15 07:37:57;;;;;;;10.02;5.82;;;6.40;99.90;;;;;;5010897;28;20046;-80
2023/12/15 07:40:24;;;;;;;8.75;5.38;;;6.40;99.90;;;;;;5004574;28;20044;-78
2023/12/15 07:42:50;;;;;;;8.32;5.18;;;6.40;99.90;;;;;;5010582;28;20105;-79
2023/12/15 07:45:17;;;;;;;8.25;4.78;;;6.40;99.90;;;;;;5006754;28;20096;-79
2023/12/15 07:47:44;;;;;;;11.75;5.78;;;6.40;99.90;;;;;;5009018;28;20410;-80
2023/12/15 07:50:11;;;;;;;8.82;5.30;;;6.30;99.90;;;;;;5006938;28;20088;-80
2023/12/15 07:52:37;;;;;;;10.25;5.43;;;6.30;99.90;;;;;;5010276;28;20041;-78
2023/12/15 07:55:05;;;;;;;12.27;5.10;;;6.30;99.90;;;;;;5011882;28;20068;-79
2023/12/15 07:57:35;;;;;;;13.38;6.28;;;6.30;99.90;;;;;;5009979;28;20050;-79
2023/12/15 08:00:05;;;;;;;10.57;5.65;;;6.20;99.90;;;;;;5009099;28;20541;-78
2023/12/15 08:02:32;;;;;;;;;;;6.20;99.90;;;;;;5010786;28;20047;-79
2023/12/15 08:04:59;;;;;;;11.40;5.28;;;6.20;99.90;;;;;;5011527;28;19922;-80
2023/12/15 08:07:25;;;;;;;12.65;4.90;;;6.20;99.90;;;;;;5004186;28;20042;-79
2023/12/15 08:09:52;;;;;;;12.73;5.30;;;6.10;99.90;;;;;;5011251;28;20104;-79
2023/12/15 08:12:19;;;;;;;10.38;4.70;;;6.10;99.90;;;;;;5005274;28;20092;-82
2023/12/15 08:14:46;;;;;;;8.13;4.80;;;6.10;99.90;;;;;;5009691;28;20053;-78
2023/12/15 08:17:13;;;;;;;9.45;5.18;;;6.10;99.90;;;;;;5007950;28;20046;-79
2023/12/15 08:19:40;;;;;;;7.32;5.07;;;6.10;99.90;;;;;;5008724;28;20049;-79
2023/12/15 08:22:07;;;;;;;6.88;4.45;;;6.20;99.90;;;;;;5010564;28;20080;-80
2023/12/15 08:24:34;;;;;;;11.30;5.03;;;6.20;99.90;;;;;;5007944;28;20065;-80
2023/12/15 08:27:01;;;;;;;14.20;4.80;;;6.20;99.90;;;;;;5007231;28;20528;-79
2023/12/15 08:29:27;;;;;;;6.68;4.28;;;6.20;99.90;;;;;;5009078;28;20084;-80
2023/12/15 08:31:54;;;;;;;10.48;4.55;;;6.20;99.90;;;;;;5008996;28;20042;-79
2023/12/15 08:34:21;;;;;;;10.00;4.50;;;6.30;99.90;;;;;;5005942;28;20132;-79
2023/12/15 08:36:48;;;;;;;7.97;4.25;;;6.30;99.90;;;;;;5005257;28;20058;-77
2023/12/15 08:39:14;;;;;;;8.68;4.07;;;6.30;99.90;;;;;;5003994;28;20093;-79
2023/12/15 08:41:44;;;;;;;8.32;3.78;;;6.30;99.90;;;;;;5009908;28;20066;-80
2023/12/15 08:44:11;;;;;;;6.32;4.25;;;6.30;99.90;;;;;;5004115;28;20042;-80
2023/12/15 08:46:54;;;;;;;8.77;4.32;;;6.40;99.90;;;;;;5007107;28;20053;-80
2023/12/15 08:49:20;;;;;;;7.03;3.92;;;6.40;99.90;;;;;;5006972;28;20050;-78
2023/12/15 08:51:47;;;;;;;4.78;3.63;;;6.50;99.90;;;;;;5008246;28;20054;-80
2023/12/15 08:54:14;;;;;;;7.10;3.17;;;6.60;99.90;;;;;;5004920;28;20042;-81
2023/12/15 08:56:43;;;;;;;6.57;3.92;;;6.60;99.90;;;;;;5007270;28;20070;-80
2023/12/15 08:59:10;;;;;;;7.15;4.28;;;6.70;99.90;;;;;;5007156;28;20045;-78
2023/12/15 09:01:37;;;;;;;7.80;4.13;;;6.70;99.90;;;;;;5007939;28;20046;-80
2023/12/15 09:04:04;;;;;;;19.20;10.45;;;6.80;99.90;;;;;;5008179;28;20042;-79
2023/12/15 09:06:30;;;;;;;11.23;6.38;;;6.80;99.90;;;;;;5008669;28;20054;-79
2023/12/15 09:09:05;;;;;;;7.57;5.03;;;6.90;99.90;;;;;;5008545;28;20046;-78
2023/12/15 09:11:32;;;;;;;5.75;3.90;;;6.90;99.90;;;;;;5006621;28;20509;-77
2023/12/15 09:14:01;;;;;;;6.65;3.92;;;7.00;99.90;;;;;;5008856;28;20049;-79
2023/12/15 09:16:28;;;;;;;12.73;3.58;;;7.00;99.90;;;;;;5005329;28;20528;-77
2023/12/15 09:18:54;;;;;;;5.28;3.80;;;7.00;99.90;;;;;;5006911;28;20125;-79
2023/12/15 09:21:21;;;;;;;9.25;4.63;;;7.00;99.90;;;;;;5005871;28;20049;-79
2023/12/15 09:23:48;;;;;;;5.60;4.00;;;7.00;99.90;;;;;;5009572;28;20047;-79
2023/12/15 09:26:15;;;;;;;7.32;4.15;;;7.00;99.90;;;;;;5008995;28;20096;-78
2023/12/15 09:28:41;;;;;;;6.85;4.57;;;7.00;99.90;;;;;;5005751;28;20108;-79
2023/12/15 09:31:08;;;;;;;9.38;4.28;;;7.00;99.90;;;;;;5010889;28;20042;-78
2023/12/15 09:33:35;;;;;;;10.20;4.88;;;7.00;99.90;;;;;;5005474;28;20097;-78
2023/12/15 09:36:02;;;;;;;7.95;4.53;;;7.00;99.90;;;;;;5007433;28;20069;-79
2023/12/15 09:38:29;;;;;;;8.07;4.50;;;6.90;99.90;;;;;;5008320;28;20046;-77
2023/12/15 09:40:55;;;;;;;7.20;5.00;;;6.90;99.90;;;;;;5012127;28;20073;-76
2023/12/15 09:43:22;;;;;;;10.10;4.80;;;6.90;99.90;;;;;;5005579;28;20049;-78
2023/12/15 09:45:49;;;;;;;11.73;5.90;;;6.90;99.90;;;;;;5013132;28;20046;-77
2023/12/15 09:48:19;;;;;;;10.18;4.88;;;6.90;99.90;;;;;;5012123;28;20045;-77
2023/12/15 09:50:53;;;;;;;7.78;4.80;;;6.90;99.90;;;;;;5007693;28;20089;-77
2023/12/15 09:53:21;;;;;;;9.93;4.70;;;6.90;99.90;;;;;;5009592;28;20557;-78
2023/12/15 09:55:51;;;;;;;8.13;4.80;;;6.80;99.90;;;;;;5012522;28;20601;-79
2023/12/15 09:58:18;;;;;;;8.18;4.57;;;6.80;99.90;;;;;;5011065;28;20110;-78
2023/12/15 10:00:45;;;;;;;7.75;4.25;;;6.80;99.90;;;;;;5007805;28;20051;-79
2023/12/15 10:03:14;;;;;;;5.75;3.70;;;6.90;99.90;;;;;;5007733;28;20046;-78
2023/12/15 10:05:42;;;;;;;6.18;4.20;;;6.90;99.90;;;;;;5008274;28;20538;-78
2023/12/15 10:08:09;;;;;;;5.72;3.85;;;6.90;99.90;;;;;;5011182;28;20100;-78
2023/12/15 10:10:36;;;;;;;7.10;4.50;;;6.90;99.90;;;;;;5016326;28;20074;-78
2023/12/15 10:13:03;;;;;;;7.10;4.38;;;6.90;99.90;;;;;;5017883;28;20050;-79
2023/12/15 10:15:30;;;;;;;6.85;3.88;;;6.90;99.90;;;;;;5012970;28;20053;-78
2023/12/15 10:17:59;;;;;;;8.98;4.05;;;6.90;99.90;;;;;;5028200;28;20046;-77
2023/12/15 10:20:26;;;;;;;8.63;3.92;;;6.90;99.90;;;;;;5009956;28;20042;-77
2023/12/15 10:23:04;;;;;;;7.68;4.18;;;6.90;99.90;;;;;;5013728;28;20046;-78
2023/12/15 10:25:34;;;;;;;7.15;4.25;;;6.90;99.90;;;;;;5009473;28;20546;-77
2023/12/15 10:28:03;;;;;;;5.75;4.32;;;6.90;99.90;;;;;;5007576;28;20104;-77
2023/12/15 10:30:30;;;;;;;8.00;4.05;;;6.90;99.90;;;;;;5013909;28;20046;-77
2023/12/15 10:32:58;;;;;;;6.22;4.70;;;7.00;99.90;;;;;;5012098;28;20046;-79
2023/12/15 10:35:28;;;;;;;7.00;3.92;;;7.00;99.90;;;;;;5014177;28;20100;-79
2023/12/15 10:37:55;;;;;;;11.75;4.68;;;7.00;99.90;;;;;;5011006;28;20057;-77
2023/12/15 10:40:22;;;;;;;7.35;4.07;;;7.10;99.90;;;;;;5020074;28;20038;-78
2023/12/15 10:42:50;;;;;;;5.97;3.90;;;7.10;99.90;;;;;;5013086;28;20105;-77
2023/12/15 10:45:18;;;;;;;5.05;3.83;;;7.10;99.90;;;;;;5013966;28;20046;-77
2023/12/15 10:47:46;;;;;;;7.97;4.40;;;7.10;99.90;;;;;;5007855;28;20078;-77
2023/12/15 10:50:14;;;;;;;10.73;3.75;;;7.10;99.90;;;;;;5010985;28;20050;-77
2023/12/15 10:52:42;;;;;;;4.10;3.22;;;7.10;99.90;;;;;;5005261;28;20050;-77
2023/12/15 10:55:11;;;;;;;6.53;3.50;;;7.10;99.90;;;;;;5011522;28;20088;-78
2023/12/15 10:57:38;;;;;;;6.07;3.58;;;7.10;99.90;;;;;;5005218;28;20108;-78
2023/12/15 11:00:06;;;;;;;7.53;3.10;;;7.10;99.90;;;;;;5010826;28;20046;-77
2023/12/15 11:02:34;;;;;;;9.93;4.32;;;7.10;99.90;;;;;;5010604;28;20041;-77
2023/12/15 11:05:02;;;;;;;7.57;3.63;;;7.10;99.90;;;;;;5024761;28;20472;-76
2023/12/15 11:07:29;;;;;;;4.85;3.67;;;7.20;99.90;;;;;;5006366;28;20464;-77
2023/12/15 11:09:59;;;;;;;7.80;3.53;;;7.20;99.90;;;;;;5012058;28;20054;-78
2023/12/15 11:12:32;;;;;;;5.85;3.95;;;7.20;99.90;;;;;;5011858;28;20054;-79
2023/12/15 11:15:07;;;;;;;8.02;4.05;;;7.20;99.90;;;;;;5012584;28;20054;-79
2023/12/15 11:17:47;;;;;;;9.43;3.88;;;7.20;99.90;;;;;;5010225;28;20049;-77
2023/12/15 11:20:20;;;;;;;7.88;3.83;;;7.30;99.90;;;;;;5013639;28;20046;-77
2023/12/15 11:22:50;;;;;;;7.05;3.63;;;7.30;99.90;;;;;;5014431;28;20051;-78
2023/12/15 11:25:18;;;;;;;7.00;3.47;;;7.30;99.90;;;;;;5022165;28;20069;-77
2023/12/15 11:28:08;;;;;;;5.35;3.40;;;7.30;99.90;;;;;;5007461;28;20552;-76
2023/12/15 11:30:41;;;;;;;8.55;3.15;;;7.40;99.90;;;;;;5012778;28;20344;-77
2023/12/15 11:33:39;;;;;;;6.38;2.90;;;7.50;99.90;;;;;;5010421;28;20228;-77
2023/12/15 11:36:08;;;;;;;7.68;2.67;;;7.50;99.90;;;;;;5007911;28;20426;-77
2023/12/15 11:38:37;;;;;;;6.63;3.00;;;7.60;99.90;;;;;;5007629;28;20049;-77
2023/12/15 11:41:05;;;;;;;3.45;2.35;;;7.60;99.90;;;;;;5009002;28;20042;-77
2023/12/15 11:43:33;;;;;;;5.40;2.50;;;7.70;99.90;;;;;;5007164;28;20417;-76
2023/12/15 11:46:00;;;;;;;3.88;2.45;;;7.80;99.90;;;;;;5008626;28;20423;-77
2023/12/15 11:48:27;;;;;;;5.32;2.85;;;7.80;99.90;;;;;;5006607;28;20442;-77
2023/12/15 11:50:54;;;;;;;4.25;2.30;;;7.90;99.90;;;;;;5009365;28;20054;-78
2023/12/15 11:53:22;;;;;;;5.38;2.75;;;8.00;99.90;;;;;;5006121;28;20477;-77
2023/12/15 11:55:52;;;;;;;6.32;3.00;;;8.10;99.90;;;;;;5007015;28;20435;-79
2023/12/15 11:58:19;;;;;;;6.20;2.40;;;8.10;99.90;;;;;;5009003;28;20053;-79
2023/12/15 12:00:46;;;;;;;4.78;2.40;;;8.20;99.90;;;;;;5004916;28;20046;-78
2023/12/15 12:03:16;;;;;;;2.70;1.90;;;8.30;99.90;;;;;;5008612;28;20038;-79
2023/12/15 12:05:47;;;;;;;5.18;2.72;;;8.40;99.90;;;;;;5005681;28;20483;-79
2023/12/15 12:08:15;;;;;;;4.32;2.13;;;8.40;99.90;;;;;;5012058;28;20041;-78
2023/12/15 12:10:42;;;;;;;4.95;2.70;;;8.40;99.90;;;;;;5003394;28;20443;-78
2023/12/15 12:13:10;;;;;;;5.90;2.70;;;8.50;99.90;;;;;;5007762;28;20092;-78
2023/12/15 12:15:54;;;;;;;4.32;2.08;;;8.50;99.90;;;;;;5007100;28;20530;-78
2023/12/15 12:18:23;;;;;;;4.63;2.30;;;8.60;99.90;;;;;;5005109;28;20046;-78
2023/12/15 12:20:55;;;;;;;4.07;2.40;;;8.60;99.90;;;;;;5011187;28;20057;-79
2023/12/15 12:23:24;;;;;;;7.43;2.88;;;8.60;99.90;;;;;;5008032;28;20527;-77
2023/12/15 12:26:06;;;;;;;3.50;2.60;;;8.70;99.90;;;;;;5007110;28;20136;-77
2023/12/15 12:28:41;;;;;;;5.68;2.42;;;8.70;99.90;;;;;;5007237;28;20124;-77
2023/12/15 12:31:09;;;;;;;6.60;3.10;;;8.70;99.90;;;;;;5011633;28;20046;-76
2023/12/15 12:33:35;;;;;;;4.30;2.58;;;8.70;99.90;;;;;;5003204;28;20054;-77
2023/12/15 12:36:04;;;;;;;3.67;2.55;;;8.80;99.90;;;;;;5008436;28;20156;-76
2023/12/15 12:38:31;;;;;;;5.25;2.45;;;8.80;99.90;;;;;;5005343;28;20153;-77
2023/12/15 12:41:02;;;;;;;6.03;2.20;;;8.90;99.90;;;;;;5006261;28;20129;-76
2023/12/15 12:43:29;;;;;;;3.40;2.17;;;8.90;99.90;;;;;;5003904;28;20053;-76
2023/12/15 12:45:56;;;;;;;3.78;2.20;;;8.80;99.90;;;;;;5005922;28;20043;-78
2023/12/15 12:48:23;;;;;;;4.32;2.15;;;8.90;99.90;;;;;;5003977;28;20501;-76
2023/12/15 12:50:50;;;;;;;5.47;2.65;;;8.90;99.90;;;;;;5004505;28;20054;-78
2023/12/15 12:53:17;;;;;;;4.40;2.40;;;8.90;99.90;;;;;;5006046;28;20490;-79
2023/12/15 12:55:44;;;;;;;7.97;2.50;;;8.90;99.90;;;;;;5007697;28;20425;-78
2023/12/15 12:58:11;;;;;;;6.45;2.97;;;8.90;99.90;;;;;;5007442;28;20188;-79